Classifiche di sempre
Migliori tempi personali validi di team tra tutti gli eventi e le stagioni. Ogni team compare una sola volta per divisione.
Cerca per nome e apri la pagina in cui è classificato questo record di divisione.
135,116 team in classifica
| Pos. | Pos. AG | Team | Nazionalità | Categoria età | TempoMiglior tempo | Distacco |
|---|---|---|---|---|---|---|
| 123501 | #463 | Silvia Sánchez & Luis ZuazuESP · X 55-59 · AG #463 | ESP | X 55-59 | 1:46:00 | +56:47 |
| 123502 | #43623 | Syr Charles Gonyea & Melina JaraX 30-34 · AG #43623 | -- | X 30-34 | 1:46:00 | +56:47 |
| 123503 | #18986 | Sophie Küng & Sandro KüngSUI · X 25-29 · AG #18986 | SUI | X 25-29 | 1:46:00 | +56:47 |
| 123504 | #15246 | 静 陈 & 道重 黄CHN · X 35-39 · AG #15246 | CHN | X 35-39 | 1:46:00 | +56:47 |
| 123505 | #15245 | Frederick Jurado & Reina Siatu'UUSA · X 35-39 · AG #15245 | USA | X 35-39 | 1:46:00 | +56:47 |
| 123506 | #43624 | Margaux Dzierzynski & Milan MontoutFRA · X 30-34 · AG #43624 | FRA | X 30-34 | 1:46:00 | +56:47 |
| 123507 | #191 | 振刚 王 & 芹 周CHN · X 60-64 · AG #191 | CHN | X 60-64 | 1:46:00 | +56:47 |
| 123508 | #43625 | Syrine Ben cherifa & Kevin AlexisFRA · X 30-34 · AG #43625 | FRA | X 30-34 | 1:46:00 | +56:47 |
| 123509 | #43627 | Pedro Gavira Cabello & Ana Benitez CanteroESP · X 30-34 · AG #43627 | ESP | X 30-34 | 1:46:00 | +56:47 |
| 123510 | #43628 | Jake Berney & Helen NichollsGBR · X 30-34 · AG #43628 | GBR | X 30-34 | 1:46:00 | +56:47 |
| 123511 | #43626 | Leslie Stewart & Josh WeberX 30-34 · AG #43626 | -- | X 30-34 | 1:46:00 | +56:47 |
| 123512 | -- | Weronika Trzecka & Kamil TrzeckiPOL · X XU29 | POL | X XU29 | 1:46:00 | +56:47 |
| 123513 | #16449 | Sandra Sandoval & Sal SandovalUSA · X 40-44 · AG #16449 | USA | X 40-44 | 1:46:00 | +56:47 |
| 123514 | #43629 | Alexa Checklenis & Justin WongUSA · X 30-34 · AG #43629 | USA | X 30-34 | 1:46:00 | +56:47 |
| 123515 | #18987 | Carl Hood & Ana PimentelUSA · X 25-29 · AG #18987 | USA | X 25-29 | 1:46:00 | +56:47 |
| 123516 | #18988 | Derrick Wilson & Bria JohnsonUSA · X 25-29 · AG #18988 | USA | X 25-29 | 1:46:00 | +56:47 |
| 123517 | #464 | Clifford Holding & Stephanie HoldingGBR · X 55-59 · AG #464 | GBR | X 55-59 | 1:46:00 | +56:47 |
| 123518 | #43630 | Dylan Crow & Lillian KorinekUSA · X 30-34 · AG #43630 | USA | X 30-34 | 1:46:01 | +56:48 |
| 123519 | #8378 | Allison Gu & Andrew KaranicolasCAN · X 16-24 · AG #8378 | CAN | X 16-24 | 1:46:01 | +56:48 |
| 123520 | #4056 | Grace Robertson & Andy RobertsonGBR · X 45-49 · AG #4056 | GBR | X 45-49 | 1:46:01 | +56:48 |
| 123521 | #15247 | Matthew Argabright & Elise Castillo ArgabrightUSA · X 35-39 · AG #15247 | USA | X 35-39 | 1:46:01 | +56:48 |
| 123522 | #8379 | Jade Renard & Tanguy MichonFRA · X 16-24 · AG #8379 | FRA | X 16-24 | 1:46:01 | +56:48 |
| 123523 | #43632 | Jiya Dewan & Mukund AroraIND · X 30-34 · AG #43632 | IND | X 30-34 | 1:46:01 | +56:48 |
| 123524 | #43633 | Ashley Milne & Jamie MacLennanGBR · X 30-34 · AG #43633 | GBR | X 30-34 | 1:46:01 | +56:48 |
| 123525 | #43634 | Luyanda Mkhize & Lebohang RamabeleRSA · X 30-34 · AG #43634 | RSA | X 30-34 | 1:46:01 | +56:48 |
Pagina 4,941 di 5,405